»·PEaware :: DAL8620 KDEN-KAMA

DAL8620 :: KDEN-KAMA

FLIGHT INFORMATION

Flight Status: Arrived
Operator:
Delta Air Lines
More flights by this operator :: More flights under this callsign
Pilot: Skye D. (10623)
Aircraft: AIRBUS A330
(A330)
More flights by this aircraft type
Origin: KDEN Denver Intl
United States
Destination: KAMA Amarillo Intl
United States
More flights between these airports :: More routes between these airports
Route: STAKR3 PYPER KENTO PNH
File this flight plan on PilotEdge
Remarks:
Altitude:
(Current/Filed)
35,000ft
Speed:
(Current/Filed)
466kts
Departed: 23-Feb-18 09:57 AM
Arrived: 23-Feb-18 11:05 AM
Distance/Time
Traveled:
312nm/1:08
Distance/Time
To Go:
Arrived

Flight Plot

Page will automatically refresh every two minutes.

Flight plan parsing failed; only flown route is shown


Map Options




Map Legend


Flown Route
Filed Route
Departure Airport
Arrival Airport
Navaid (VOR, NDB)
Fix

Horizontal Profiles

Position Reports

Time Latitude Longitude Heading Altitude Ground
Speed
23-Feb-18 09:30 39.859365 -104.672473 180 5444ft 0kts
23-Feb-18 09:31 39.859365 -104.672473 180 5444ft 0kts
23-Feb-18 09:32 39.859365 -104.672473 180 5444ft 0kts
23-Feb-18 09:33 39.859365 -104.672473 180 5444ft 0kts
23-Feb-18 09:34 39.859365 -104.672473 180 5444ft 0kts
23-Feb-18 09:35 39.859365 -104.672473 180 5444ft 0kts
23-Feb-18 09:36 39.859365 -104.672473 180 5444ft 0kts
23-Feb-18 09:37 39.859365 -104.672473 180 5444ft 0kts
23-Feb-18 09:38 39.859365 -104.672473 180 5444ft 0kts
23-Feb-18 09:39 39.859365 -104.672473 180 5444ft 0kts
23-Feb-18 09:40 39.859365 -104.672473 180 5444ft 0kts
23-Feb-18 09:41 39.859365 -104.672473 180 5444ft 0kts
23-Feb-18 09:42 39.859365 -104.672473 180 5444ft 0kts
23-Feb-18 09:43 39.859365 -104.672473 180 5444ft 0kts
23-Feb-18 09:44 39.859365 -104.672473 180 5444ft 0kts
23-Feb-18 09:45 39.859365 -104.672473 180 5444ft 0kts
23-Feb-18 09:46 39.859365 -104.672473 180 5444ft 0kts
23-Feb-18 09:47 39.859825 -104.672218 227 5444ft 2kts
23-Feb-18 09:48 39.859995 -104.671515 271 5444ft 2kts
23-Feb-18 09:49 39.859994 -104.671365 269 5444ft 0kts
23-Feb-18 09:50 39.859994 -104.671365 269 5444ft 0kts
23-Feb-18 09:51 39.859947 -104.674216 269 5444ft 17kts
23-Feb-18 09:52 39.860020 -104.678463 272 5444ft 6kts
23-Feb-18 09:53 39.860498 -104.681399 253 5444ft 11kts
23-Feb-18 09:54 39.860293 -104.682550 272 5444ft 0kts
23-Feb-18 09:55 39.860293 -104.682550 272 5444ft 0kts
23-Feb-18 09:56 39.860293 -104.682550 272 5444ft 0kts
23-Feb-18 09:57 39.860303 -104.682941 271 5444ft 4kts
23-Feb-18 09:58 39.857896 -104.683917 180 5444ft 17kts
23-Feb-18 09:59 39.852472 -104.684046 179 5444ft 21kts
23-Feb-18 10:00 39.847343 -104.684095 179 5444ft 26kts
23-Feb-18 10:01 39.842152 -104.684108 181 5444ft 1kts
23-Feb-18 10:02 39.842142 -104.684108 181 5444ft 0kts
23-Feb-18 10:03 39.841071 -104.684169 190 5444ft 10kts
23-Feb-18 10:04 39.840672 -104.688293 269 5444ft 62kts
23-Feb-18 10:05 39.840124 -104.738630 253 6559ft 169kts
23-Feb-18 10:06 39.828513 -104.792550 253 7587ft 211kts
23-Feb-18 10:07 39.817115 -104.848351 251 8741ft 238kts
23-Feb-18 10:08 39.790972 -104.896245 228 10519ft 240kts
23-Feb-18 10:09 39.744106 -104.922095 193 12242ft 256kts
23-Feb-18 10:10 39.685060 -104.919204 176 13526ft 310kts
23-Feb-18 10:11 39.617530 -104.898870 161 15783ft 334kts
23-Feb-18 10:12 39.547784 -104.851163 164 18410ft 336kts
23-Feb-18 10:13 39.471705 -104.803639 171 20846ft 334kts
23-Feb-18 10:14 39.391641 -104.762455 165 22006ft 382kts
23-Feb-18 10:15 39.307045 -104.667588 149 23912ft 429kts
23-Feb-18 10:16 39.220016 -104.563585 148 26013ft 442kts
23-Feb-18 10:17 39.128005 -104.463653 168 27891ft 423kts
23-Feb-18 10:18 39.018303 -104.428072 177 30359ft 403kts
23-Feb-18 10:19 38.917123 -104.399800 177 32230ft 401kts
23-Feb-18 10:20 38.809386 -104.370051 177 34094ft 398kts
23-Feb-18 10:21 38.706474 -104.341461 177 35061ft 403kts
23-Feb-18 10:22 38.606004 -104.267906 153 35073ft 441kts
23-Feb-18 10:23 38.512222 -104.167531 152 35064ft 445kts
23-Feb-18 10:24 38.419709 -104.067786 152 35122ft 444kts
23-Feb-18 10:25 38.326079 -103.967143 152 35119ft 445kts
23-Feb-18 10:26 38.231957 -103.866328 151 35159ft 445kts
23-Feb-18 10:27 38.137320 -103.765310 151 35164ft 447kts
23-Feb-18 10:28 38.039774 -103.677454 171 35192ft 415kts
23-Feb-18 10:29 37.932956 -103.627967 171 35166ft 414kts
23-Feb-18 10:30 37.825823 -103.579767 171 35167ft 414kts
23-Feb-18 10:31 37.718075 -103.531518 171 35169ft 416kts
23-Feb-18 10:32 37.610338 -103.483396 171 35168ft 415kts
23-Feb-18 10:33 37.502310 -103.435306 171 35167ft 415kts
23-Feb-18 10:34 37.393965 -103.387222 171 35153ft 415kts
23-Feb-18 10:35 37.285663 -103.339103 171 35145ft 415kts
23-Feb-18 10:36 37.177248 -103.290784 172 35145ft 414kts
23-Feb-18 10:37 37.068938 -103.243139 172 35145ft 414kts
23-Feb-18 10:38 36.961165 -103.195891 172 35145ft 414kts
23-Feb-18 10:39 36.852950 -103.148617 172 35099ft 414kts
23-Feb-18 10:40 36.744454 -103.100117 164 35091ft 425kts
23-Feb-18 10:41 36.645608 -103.011612 155 35106ft 441kts
23-Feb-18 10:42 36.550282 -102.922616 154 33206ft 443kts
23-Feb-18 10:43 36.451308 -102.830247 154 30117ft 448kts
23-Feb-18 10:44 36.354054 -102.739754 154 27937ft 431kts
23-Feb-18 10:45 36.260115 -102.652682 153 25694ft 417kts
23-Feb-18 10:46 36.168511 -102.568020 152 23361ft 406kts
23-Feb-18 10:47 36.080822 -102.486650 151 21217ft 393kts
23-Feb-18 10:48 35.995504 -102.407113 151 19081ft 380kts
23-Feb-18 10:49 35.914795 -102.331823 150 17031ft 367kts
23-Feb-18 10:50 35.835805 -102.258093 150 14981ft 355kts
23-Feb-18 10:51 35.758776 -102.185975 149 12947ft 345kts
23-Feb-18 10:52 35.684401 -102.116317 148 11005ft 332kts
23-Feb-18 10:53 35.619028 -102.055113 149 10872ft 275kts
23-Feb-18 10:54 35.558700 -101.998924 149 9197ft 271kts
23-Feb-18 10:55 35.500956 -101.945183 147 7769ft 260kts
23-Feb-18 10:56 35.475479 -101.879096 68 6408ft 279kts
23-Feb-18 10:57 35.530445 -101.811613 46 5991ft 282kts
23-Feb-18 10:58 35.588159 -101.746706 45 5982ft 282kts
23-Feb-18 10:59 35.640821 -101.687179 50 6016ft 276kts
23-Feb-18 11:00 35.632559 -101.616114 126 6018ft 251kts
23-Feb-18 11:01 35.587811 -101.572530 184 5888ft 216kts
23-Feb-18 11:02 35.530277 -101.575097 175 5417ft 216kts
23-Feb-18 11:03 35.472024 -101.573610 171 5417ft 215kts
23-Feb-18 11:04 35.424226 -101.544541 147 5367ft 167kts
23-Feb-18 11:05 35.384289 -101.516102 148 5377ft 168kts
23-Feb-18 11:06 35.344229 -101.488779 171 5344ft 168kts
23-Feb-18 11:07 35.313023 -101.529409 233 5360ft 177kts
23-Feb-18 11:08 35.289560 -101.578669 234 5300ft 142kts
23-Feb-18 11:09 35.270058 -101.620740 235 4943ft 144kts
23-Feb-18 11:10 35.250342 -101.663814 237 4211ft 146kts
23-Feb-18 11:11 35.228071 -101.703985 223 3636ft 145kts
23-Feb-18 11:12 35.214479 -101.720934 225 3620ft 18kts
23-Feb-18 11:13 35.211886 -101.719679 116 3620ft 13kts
23-Feb-18 11:14 35.214143 -101.716137 46 3620ft 24kts
23-Feb-18 11:15 35.219573 -101.709315 45 3620ft 28kts
23-Feb-18 11:16 35.221447 -101.705100 93 3620ft 11kts
23-Feb-18 11:17 35.220438 -101.704398 270 3620ft 0kts
23-Feb-18 11:18 35.220438 -101.704398 270 3620ft 0kts
23-Feb-18 11:19 35.220438 -101.704398 270 3620ft 0kts

Navigation Log

Ident Type
Flight plan parsing failed, navigation log unavailable